sensor_id;sensor_type;location;lat;lon;timestamp;pressure;altitude;pressure_sealevel;temperature;humidity
11621;BME280;5866;49.094;11.900;2022-12-05T00:01:43;95876.88;;;9.22;100.00
11621;BME280;5866;49.094;11.900;2022-12-05T00:04:13;95881.56;;;9.28;100.00
11621;BME280;5866;49.094;11.900;2022-12-05T00:06:41;95877.53;;;9.16;100.00
11621;BME280;5866;49.094;11.900;2022-12-05T00:09:11;95874.91;;;9.16;100.00
11621;BME280;5866;49.094;11.900;2022-12-05T00:11:41;95880.66;;;9.11;100.00
11621;BME280;5866;49.094;11.900;2022-12-05T00:14:10;95882.69;;;8.75;100.00
11621;BME280;5866;49.094;11.900;2022-12-05T00:16:40;95892.09;;;7.93;100.00
11621;BME280;5866;49.094;11.900;2022-12-05T00:19:10;95901.25;;;7.81;100.00
11621;BME280;5866;49.094;11.900;2022-12-05T00:21:38;95903.59;;;7.84;100.00
11621;BME280;5866;49.094;11.900;2022-12-05T00:24:09;95897.94;;;7.61;100.00
11621;BME280;5866;49.094;11.900;2022-12-05T00:26:39;95900.16;;;7.31;100.00
11621;BME280;5866;49.094;11.900;2022-12-05T00:29:06;95907.78;;;7.06;100.00
11621;BME280;5866;49.094;11.900;2022-12-05T00:31:34;95910.91;;;7.19;100.00
11621;BME280;5866;49.094;11.900;2022-12-05T00:34:02;95912.19;;;7.15;100.00
11621;BME280;5866;49.094;11.900;2022-12-05T00:36:32;95917.34;;;7.35;100.00
11621;BME280;5866;49.094;11.900;2022-12-05T00:39:04;95910.75;;;7.03;100.00
11621;BME280;5866;49.094;11.900;2022-12-05T00:41:32;95915.63;;;6.98;100.00
11621;BME280;5866;49.094;11.900;2022-12-05T00:44:03;95922.84;;;6.96;100.00
11621;BME280;5866;49.094;11.900;2022-12-05T00:46:31;95916.97;;;6.48;100.00
11621;BME280;5866;49.094;11.900;2022-12-05T00:49:00;95924.47;;;6.43;100.00
11621;BME280;5866;49.094;11.900;2022-12-05T00:51:30;95912.31;;;6.69;100.00
11621;BME280;5866;49.094;11.900;2022-12-05T00:54:00;95916.81;;;6.86;100.00
11621;BME280;5866;49.094;11.900;2022-12-05T00:56:29;95929.38;;;6.65;100.00
11621;BME280;5866;49.094;11.900;2022-12-05T00:58:58;95932.09;;;7.10;100.00
11621;BME280;5866;49.094;11.900;2022-12-05T01:01:30;95938.06;;;6.48;100.00
11621;BME280;5866;49.094;11.900;2022-12-05T01:04:03;95938.00;;;6.21;100.00
11621;BME280;5866;49.094;11.900;2022-12-05T01:06:32;95936.72;;;6.25;100.00
11621;BME280;5866;49.094;11.900;2022-12-05T01:08:59;95937.03;;;6.22;100.00
11621;BME280;5866;49.094;11.900;2022-12-05T01:11:28;95935.25;;;6.13;100.00
11621;BME280;5866;49.094;11.900;2022-12-05T01:13:58;95946.13;;;6.37;100.00
11621;BME280;5866;49.094;11.900;2022-12-05T01:16:29;95955.09;;;5.69;100.00
11621;BME280;5866;49.094;11.900;2022-12-05T01:18:59;95948.44;;;5.94;100.00
11621;BME280;5866;49.094;11.900;2022-12-05T01:21:27;95941.44;;;6.31;100.00
11621;BME280;5866;49.094;11.900;2022-12-05T01:23:55;95944.25;;;6.10;100.00
11621;BME280;5866;49.094;11.900;2022-12-05T01:26:23;95948.16;;;6.06;100.00
11621;BME280;5866;49.094;11.900;2022-12-05T01:28:51;95961.47;;;5.86;100.00
11621;BME280;5866;49.094;11.900;2022-12-05T01:31:22;95974.31;;;5.50;100.00
11621;BME280;5866;49.094;11.900;2022-12-05T01:33:53;95973.78;;;5.56;100.00
11621;BME280;5866;49.094;11.900;2022-12-05T01:36:21;95982.75;;;5.44;100.00
11621;BME280;5866;49.094;11.900;2022-12-05T01:38:49;95985.75;;;5.21;100.00
11621;BME280;5866;49.094;11.900;2022-12-05T01:41:21;95990.66;;;5.44;100.00
11621;BME280;5866;49.094;11.900;2022-12-05T01:43:53;95977.50;;;5.73;100.00
11621;BME280;5866;49.094;11.900;2022-12-05T01:46:21;95993.97;;;5.46;100.00
11621;BME280;5866;49.094;11.900;2022-12-05T01:48:49;95988.75;;;5.85;100.00
11621;BME280;5866;49.094;11.900;2022-12-05T01:51:19;95988.03;;;6.02;100.00
11621;BME280;5866;49.094;11.900;2022-12-05T01:53:47;95995.91;;;6.40;100.00
11621;BME280;5866;49.094;11.900;2022-12-05T01:56:15;95988.34;;;5.99;100.00
11621;BME280;5866;49.094;11.900;2022-12-05T01:58:43;96009.38;;;5.80;100.00
11621;BME280;5866;49.094;11.900;2022-12-05T02:01:13;96010.78;;;5.93;100.00
11621;BME280;5866;49.094;11.900;2022-12-05T02:03:43;96001.88;;;6.23;100.00
11621;BME280;5866;49.094;11.900;2022-12-05T02:06:12;96002.69;;;6.33;100.00
11621;BME280;5866;49.094;11.900;2022-12-05T02:08:42;95999.13;;;6.05;100.00
11621;BME280;5866;49.094;11.900;2022-12-05T02:11:11;95999.00;;;6.07;100.00
11621;BME280;5866;49.094;11.900;2022-12-05T02:14:02;95999.78;;;6.36;100.00
11621;BME280;5866;49.094;11.900;2022-12-05T02:16:43;96011.34;;;5.97;100.00
11621;BME280;5866;49.094;11.900;2022-12-05T02:19:32;96013.00;;;5.98;100.00
11621;BME280;5866;49.094;11.900;2022-12-05T02:22:21;96025.13;;;5.70;100.00
11621;BME280;5866;49.094;11.900;2022-12-05T02:25:15;96018.50;;;5.56;100.00
11621;BME280;5866;49.094;11.900;2022-12-05T02:28:02;96016.19;;;5.92;100.00
11621;BME280;5866;49.094;11.900;2022-12-05T02:30:37;96021.56;;;5.71;100.00
11621;BME280;5866;49.094;11.900;2022-12-05T02:33:11;96019.19;;;5.58;100.00
11621;BME280;5866;49.094;11.900;2022-12-05T02:35:51;96044.94;;;5.06;100.00
11621;BME280;5866;49.094;11.900;2022-12-05T02:38:26;96037.41;;;5.41;100.00
11621;BME280;5866;49.094;11.900;2022-12-05T02:41:07;96039.94;;;5.42;100.00
11621;BME280;5866;49.094;11.900;2022-12-05T02:43:40;96036.25;;;5.74;100.00
11621;BME280;5866;49.094;11.900;2022-12-05T02:46:11;96043.06;;;5.27;100.00
11621;BME280;5866;49.094;11.900;2022-12-05T02:48:41;96045.25;;;5.22;100.00
11621;BME280;5866;49.094;11.900;2022-12-05T02:51:14;96043.13;;;5.55;100.00
11621;BME280;5866;49.094;11.900;2022-12-05T02:53:45;96047.56;;;5.55;100.00
11621;BME280;5866;49.094;11.900;2022-12-05T02:56:14;96068.06;;;5.12;100.00
11621;BME280;5866;49.094;11.900;2022-12-05T02:58:46;96078.72;;;5.10;100.00
11621;BME280;5866;49.094;11.900;2022-12-05T03:01:17;96078.19;;;5.16;100.00
11621;BME280;5866;49.094;11.900;2022-12-05T03:03:45;96074.84;;;5.14;100.00
11621;BME280;5866;49.094;11.900;2022-12-05T03:06:14;96075.09;;;5.11;100.00
11621;BME280;5866;49.094;11.900;2022-12-05T03:08:47;96071.66;;;5.50;100.00
11621;BME280;5866;49.094;11.900;2022-12-05T03:11:17;96058.38;;;5.81;100.00
11621;BME280;5866;49.094;11.900;2022-12-05T03:13:48;96042.88;;;5.58;100.00
11621;BME280;5866;49.094;11.900;2022-12-05T03:16:22;96043.97;;;5.56;100.00
11621;BME280;5866;49.094;11.900;2022-12-05T03:18:55;96079.97;;;5.16;100.00
11621;BME280;5866;49.094;11.900;2022-12-05T03:21:29;96095.13;;;5.33;100.00
11621;BME280;5866;49.094;11.900;2022-12-05T03:24:01;96078.41;;;5.43;100.00
11621;BME280;5866;49.094;11.900;2022-12-05T03:26:36;96070.16;;;5.18;100.00
11621;BME280;5866;49.094;11.900;2022-12-05T03:29:18;96067.31;;;5.00;100.00
11621;BME280;5866;49.094;11.900;2022-12-05T03:31:53;96080.25;;;5.13;100.00
11621;BME280;5866;49.094;11.900;2022-12-05T03:34:31;96085.44;;;5.43;100.00
11621;BME280;5866;49.094;11.900;2022-12-05T03:37:04;96094.41;;;5.21;100.00
11621;BME280;5866;49.094;11.900;2022-12-05T03:39:35;96092.00;;;5.48;100.00
11621;BME280;5866;49.094;11.900;2022-12-05T03:42:08;96095.97;;;5.33;100.00
11621;BME280;5866;49.094;11.900;2022-12-05T03:44:43;96099.22;;;5.16;100.00
11621;BME280;5866;49.094;11.900;2022-12-05T03:47:19;96091.41;;;5.45;100.00
11621;BME280;5866;49.094;11.900;2022-12-05T03:49:50;96078.78;;;5.29;100.00
11621;BME280;5866;49.094;11.900;2022-12-05T03:52:26;96074.53;;;5.47;100.00
11621;BME280;5866;49.094;11.900;2022-12-05T03:55:00;96071.41;;;5.63;100.00
11621;BME280;5866;49.094;11.900;2022-12-05T03:57:32;96086.03;;;5.46;100.00
11621;BME280;5866;49.094;11.900;2022-12-05T04:00:06;96105.66;;;4.82;100.00
11621;BME280;5866;49.094;11.900;2022-12-05T04:02:40;96078.41;;;5.04;100.00
11621;BME280;5866;49.094;11.900;2022-12-05T04:05:15;96087.13;;;5.04;100.00
11621;BME280;5866;49.094;11.900;2022-12-05T04:07:45;96106.94;;;5.18;100.00
11621;BME280;5866;49.094;11.900;2022-12-05T04:10:17;96112.81;;;5.01;100.00
11621;BME280;5866;49.094;11.900;2022-12-05T04:12:48;96122.25;;;5.03;100.00
11621;BME280;5866;49.094;11.900;2022-12-05T04:15:21;96144.47;;;4.69;100.00
11621;BME280;5866;49.094;11.900;2022-12-05T04:17:55;96133.25;;;4.88;100.00
11621;BME280;5866;49.094;11.900;2022-12-05T04:20:27;96122.16;;;5.44;100.00
11621;BME280;5866;49.094;11.900;2022-12-05T04:23:13;96135.31;;;5.14;100.00
11621;BME280;5866;49.094;11.900;2022-12-05T04:25:51;96143.94;;;4.96;100.00
11621;BME280;5866;49.094;11.900;2022-12-05T04:28:25;96131.53;;;5.07;100.00
11621;BME280;5866;49.094;11.900;2022-12-05T04:31:00;96140.16;;;4.68;100.00
11621;BME280;5866;49.094;11.900;2022-12-05T04:33:34;96139.41;;;4.77;100.00
11621;BME280;5866;49.094;11.900;2022-12-05T04:36:10;96138.31;;;4.79;100.00
11621;BME280;5866;49.094;11.900;2022-12-05T04:38:43;96143.06;;;4.86;100.00
11621;BME280;5866;49.094;11.900;2022-12-05T04:41:16;96145.94;;;4.82;100.00
11621;BME280;5866;49.094;11.900;2022-12-05T04:43:48;96144.94;;;4.63;100.00
11621;BME280;5866;49.094;11.900;2022-12-05T04:46:17;96154.38;;;4.65;100.00
11621;BME280;5866;49.094;11.900;2022-12-05T04:48:51;96168.38;;;4.34;100.00
11621;BME280;5866;49.094;11.900;2022-12-05T04:51:22;96159.78;;;4.64;100.00
11621;BME280;5866;49.094;11.900;2022-12-05T04:53:56;96166.94;;;4.62;100.00
11621;BME280;5866;49.094;11.900;2022-12-05T04:56:28;96156.28;;;4.43;100.00
11621;BME280;5866;49.094;11.900;2022-12-05T04:58:56;96163.13;;;4.34;100.00
11621;BME280;5866;49.094;11.900;2022-12-05T05:01:27;96166.63;;;4.55;100.00
11621;BME280;5866;49.094;11.900;2022-12-05T05:04:02;96165.16;;;4.42;100.00
11621;BME280;5866;49.094;11.900;2022-12-05T05:06:36;96173.84;;;4.63;100.00
11621;BME280;5866;49.094;11.900;2022-12-05T05:09:03;96164.25;;;5.24;100.00
11621;BME280;5866;49.094;11.900;2022-12-05T05:11:32;96169.94;;;5.49;100.00
11621;BME280;5866;49.094;11.900;2022-12-05T05:14:01;96173.53;;;5.48;100.00
11621;BME280;5866;49.094;11.900;2022-12-05T05:16:32;96177.72;;;5.00;100.00
11621;BME280;5866;49.094;11.900;2022-12-05T05:19:02;96175.84;;;4.50;100.00
11621;BME280;5866;49.094;11.900;2022-12-05T05:21:32;96173.59;;;5.07;100.00
11621;BME280;5866;49.094;11.900;2022-12-05T05:24:00;96174.81;;;5.63;100.00
11621;BME280;5866;49.094;11.900;2022-12-05T05:26:29;96165.28;;;5.62;100.00
11621;BME280;5866;49.094;11.900;2022-12-05T05:28:57;96172.13;;;5.44;100.00
11621;BME280;5866;49.094;11.900;2022-12-05T05:31:24;96170.38;;;5.54;100.00
11621;BME280;5866;49.094;11.900;2022-12-05T05:33:53;96174.72;;;5.75;100.00
11621;BME280;5866;49.094;11.900;2022-12-05T05:36:24;96188.78;;;5.54;100.00
11621;BME280;5866;49.094;11.900;2022-12-05T05:38:54;96184.59;;;5.42;100.00
11621;BME280;5866;49.094;11.900;2022-12-05T05:41:23;96181.38;;;5.69;100.00
11621;BME280;5866;49.094;11.900;2022-12-05T05:43:51;96187.91;;;5.44;100.00
11621;BME280;5866;49.094;11.900;2022-12-05T05:46:21;96187.34;;;4.90;100.00
11621;BME280;5866;49.094;11.900;2022-12-05T05:48:49;96190.22;;;4.66;100.00
11621;BME280;5866;49.094;11.900;2022-12-05T05:51:17;96195.13;;;5.01;100.00
11621;BME280;5866;49.094;11.900;2022-12-05T05:53:47;96194.00;;;4.94;100.00
11621;BME280;5866;49.094;11.900;2022-12-05T05:56:16;96197.13;;;4.88;100.00
11621;BME280;5866;49.094;11.900;2022-12-05T05:58:47;96195.81;;;5.24;100.00
11621;BME280;5866;49.094;11.900;2022-12-05T06:01:21;96189.66;;;5.34;100.00
11621;BME280;5866;49.094;11.900;2022-12-05T06:03:48;96182.97;;;4.79;100.00
11621;BME280;5866;49.094;11.900;2022-12-05T06:06:17;96183.13;;;5.29;100.00
11621;BME280;5866;49.094;11.900;2022-12-05T06:08:47;96177.22;;;5.76;100.00
11621;BME280;5866;49.094;11.900;2022-12-05T06:11:16;96173.38;;;5.80;100.00
11621;BME280;5866;49.094;11.900;2022-12-05T06:13:51;96179.66;;;5.58;100.00
11621;BME280;5866;49.094;11.900;2022-12-05T06:16:19;96173.59;;;6.07;100.00
11621;BME280;5866;49.094;11.900;2022-12-05T06:18:47;96180.91;;;5.94;100.00
11621;BME280;5866;49.094;11.900;2022-12-05T06:21:16;96190.09;;;6.09;100.00
11621;BME280;5866;49.094;11.900;2022-12-05T06:23:44;96203.19;;;5.50;100.00
11621;BME280;5866;49.094;11.900;2022-12-05T06:26:15;96193.53;;;5.70;100.00
11621;BME280;5866;49.094;11.900;2022-12-05T06:28:43;96195.06;;;5.73;100.00
11621;BME280;5866;49.094;11.900;2022-12-05T06:31:13;96208.69;;;5.47;100.00
11621;BME280;5866;49.094;11.900;2022-12-05T06:33:41;96209.06;;;5.73;100.00
11621;BME280;5866;49.094;11.900;2022-12-05T06:36:10;96212.47;;;5.85;100.00
11621;BME280;5866;49.094;11.900;2022-12-05T06:38:39;96217.34;;;5.59;100.00
11621;BME280;5866;49.094;11.900;2022-12-05T06:41:10;96216.22;;;5.92;100.00
11621;BME280;5866;49.094;11.900;2022-12-05T06:43:40;96221.94;;;5.97;100.00
11621;BME280;5866;49.094;11.900;2022-12-05T06:46:08;96223.06;;;5.74;100.00
11621;BME280;5866;49.094;11.900;2022-12-05T06:48:37;96221.28;;;6.14;100.00
11621;BME280;5866;49.094;11.900;2022-12-05T06:51:08;96222.56;;;6.29;100.00
11621;BME280;5866;49.094;11.900;2022-12-05T06:53:36;96229.38;;;6.41;100.00
11621;BME280;5866;49.094;11.900;2022-12-05T06:56:06;96230.06;;;5.63;100.00
11621;BME280;5866;49.094;11.900;2022-12-05T06:58:37;96249.28;;;5.54;100.00
11621;BME280;5866;49.094;11.900;2022-12-05T07:01:10;96243.78;;;5.37;100.00
11621;BME280;5866;49.094;11.900;2022-12-05T07:03:55;96242.84;;;5.17;100.00
11621;BME280;5866;49.094;11.900;2022-12-05T07:06:23;96249.75;;;4.98;100.00
11621;BME280;5866;49.094;11.900;2022-12-05T07:08:51;96260.19;;;4.88;100.00
11621;BME280;5866;49.094;11.900;2022-12-05T07:11:19;96265.88;;;4.72;100.00
11621;BME280;5866;49.094;11.900;2022-12-05T07:13:46;96268.50;;;5.04;100.00
11621;BME280;5866;49.094;11.900;2022-12-05T07:16:15;96271.91;;;4.84;100.00
11621;BME280;5866;49.094;11.900;2022-12-05T07:18:43;96280.50;;;4.86;100.00
11621;BME280;5866;49.094;11.900;2022-12-05T07:21:12;96282.47;;;4.30;100.00
11621;BME280;5866;49.094;11.900;2022-12-05T07:23:42;96286.59;;;4.55;100.00
11621;BME280;5866;49.094;11.900;2022-12-05T07:26:12;96284.41;;;5.03;100.00
11621;BME280;5866;49.094;11.900;2022-12-05T07:28:40;96285.69;;;5.08;100.00
11621;BME280;5866;49.094;11.900;2022-12-05T07:31:09;96284.50;;;5.01;100.00
11621;BME280;5866;49.094;11.900;2022-12-05T07:33:38;96291.81;;;4.66;100.00
11621;BME280;5866;49.094;11.900;2022-12-05T07:36:10;96297.63;;;4.38;100.00
11621;BME280;5866;49.094;11.900;2022-12-05T07:38:38;96299.56;;;4.02;100.00
11621;BME280;5866;49.094;11.900;2022-12-05T07:41:07;96297.66;;;4.27;100.00
11621;BME280;5866;49.094;11.900;2022-12-05T07:43:39;96312.69;;;4.14;100.00
11621;BME280;5866;49.094;11.900;2022-12-05T07:46:07;96308.56;;;4.65;100.00
11621;BME280;5866;49.094;11.900;2022-12-05T07:48:37;96305.19;;;4.63;100.00
11621;BME280;5866;49.094;11.900;2022-12-05T07:51:07;96312.38;;;4.93;100.00
11621;BME280;5866;49.094;11.900;2022-12-05T07:53:36;96306.03;;;4.95;100.00
11621;BME280;5866;49.094;11.900;2022-12-05T07:56:06;96310.78;;;5.01;100.00
11621;BME280;5866;49.094;11.900;2022-12-05T07:58:34;96322.91;;;4.50;100.00
11621;BME280;5866;49.094;11.900;2022-12-05T08:01:06;96317.47;;;5.05;100.00
11621;BME280;5866;49.094;11.900;2022-12-05T08:03:34;96317.88;;;5.21;100.00
11621;BME280;5866;49.094;11.900;2022-12-05T08:06:03;96320.81;;;5.07;100.00
11621;BME280;5866;49.094;11.900;2022-12-05T08:08:32;96336.16;;;4.91;100.00
11621;BME280;5866;49.094;11.900;2022-12-05T08:11:02;96340.78;;;4.99;100.00
11621;BME280;5866;49.094;11.900;2022-12-05T08:13:29;96343.34;;;5.21;100.00
11621;BME280;5866;49.094;11.900;2022-12-05T08:16:00;96337.28;;;5.09;100.00
11621;BME280;5866;49.094;11.900;2022-12-05T08:18:28;96345.66;;;5.03;100.00
11621;BME280;5866;49.094;11.900;2022-12-05T08:21:00;96350.69;;;5.06;100.00
11621;BME280;5866;49.094;11.900;2022-12-05T08:23:28;96348.25;;;5.14;100.00
11621;BME280;5866;49.094;11.900;2022-12-05T08:26:01;96342.50;;;5.61;100.00
11621;BME280;5866;49.094;11.900;2022-12-05T08:28:29;96346.88;;;5.51;100.00
11621;BME280;5866;49.094;11.900;2022-12-05T08:31:03;96349.25;;;5.34;100.00
11621;BME280;5866;49.094;11.900;2022-12-05T08:33:31;96356.44;;;5.00;100.00
11621;BME280;5866;49.094;11.900;2022-12-05T08:36:00;96351.56;;;5.27;100.00
11621;BME280;5866;49.094;11.900;2022-12-05T08:38:28;96351.78;;;5.24;100.00
11621;BME280;5866;49.094;11.900;2022-12-05T08:41:00;96349.25;;;5.54;100.00
11621;BME280;5866;49.094;11.900;2022-12-05T08:43:28;96352.56;;;5.88;100.00
11621;BME280;5866;49.094;11.900;2022-12-05T08:45:57;96355.47;;;5.74;100.00
11621;BME280;5866;49.094;11.900;2022-12-05T08:48:25;96351.06;;;5.54;100.00
11621;BME280;5866;49.094;11.900;2022-12-05T08:50:55;96367.22;;;5.70;100.00
11621;BME280;5866;49.094;11.900;2022-12-05T08:53:23;96366.22;;;5.82;100.00
11621;BME280;5866;49.094;11.900;2022-12-05T08:55:51;96369.47;;;5.75;100.00
11621;BME280;5866;49.094;11.900;2022-12-05T08:58:20;96365.94;;;6.06;100.00
11621;BME280;5866;49.094;11.900;2022-12-05T09:00:48;96367.13;;;5.92;100.00
11621;BME280;5866;49.094;11.900;2022-12-05T09:03:15;96357.31;;;6.04;100.00
11621;BME280;5866;49.094;11.900;2022-12-05T09:05:43;96365.97;;;6.46;100.00
11621;BME280;5866;49.094;11.900;2022-12-05T09:08:10;96371.03;;;5.98;100.00
11621;BME280;5866;49.094;11.900;2022-12-05T09:10:38;96366.72;;;6.27;100.00
11621;BME280;5866;49.094;11.900;2022-12-05T09:13:06;96369.84;;;6.11;100.00
11621;BME280;5866;49.094;11.900;2022-12-05T09:15:36;96375.41;;;5.88;100.00
11621;BME280;5866;49.094;11.900;2022-12-05T09:18:04;96373.06;;;6.15;100.00
11621;BME280;5866;49.094;11.900;2022-12-05T09:20:32;96380.66;;;6.18;100.00
11621;BME280;5866;49.094;11.900;2022-12-05T09:23:00;96372.06;;;6.46;100.00
11621;BME280;5866;49.094;11.900;2022-12-05T09:25:27;96389.09;;;6.72;100.00
11621;BME280;5866;49.094;11.900;2022-12-05T09:27:55;96391.84;;;6.71;100.00
11621;BME280;5866;49.094;11.900;2022-12-05T09:30:22;96382.00;;;6.33;100.00
11621;BME280;5866;49.094;11.900;2022-12-05T09:32:51;96376.25;;;6.58;100.00
11621;BME280;5866;49.094;11.900;2022-12-05T09:35:19;96383.59;;;6.45;100.00
11621;BME280;5866;49.094;11.900;2022-12-05T09:37:46;96390.16;;;6.00;100.00
11621;BME280;5866;49.094;11.900;2022-12-05T09:40:15;96388.59;;;5.97;100.00
11621;BME280;5866;49.094;11.900;2022-12-05T09:42:53;96389.50;;;5.87;100.00
11621;BME280;5866;49.094;11.900;2022-12-05T09:45:25;96376.19;;;6.39;100.00
11621;BME280;5866;49.094;11.900;2022-12-05T09:47:59;96377.72;;;6.72;100.00
11621;BME280;5866;49.094;11.900;2022-12-05T09:50:30;96376.88;;;6.71;100.00
11621;BME280;5866;49.094;11.900;2022-12-05T09:53:04;96365.25;;;6.34;100.00
11621;BME280;5866;49.094;11.900;2022-12-05T09:55:38;96371.28;;;6.55;100.00
11621;BME280;5866;49.094;11.900;2022-12-05T09:58:17;96366.03;;;5.95;100.00
11621;BME280;5866;49.094;11.900;2022-12-05T10:00:46;96358.69;;;6.28;100.00
11621;BME280;5866;49.094;11.900;2022-12-05T10:03:24;96360.38;;;6.39;100.00
11621;BME280;5866;49.094;11.900;2022-12-05T10:06:04;96366.38;;;6.11;100.00
11621;BME280;5866;49.094;11.900;2022-12-05T10:08:40;96370.94;;;6.09;100.00
11621;BME280;5866;49.094;11.900;2022-12-05T10:11:15;96368.72;;;5.84;100.00
11621;BME280;5866;49.094;11.900;2022-12-05T10:13:47;96366.19;;;5.41;100.00
11621;BME280;5866;49.094;11.900;2022-12-05T10:16:25;96372.69;;;5.26;100.00
11621;BME280;5866;49.094;11.900;2022-12-05T10:18:58;96379.81;;;5.14;100.00
11621;BME280;5866;49.094;11.900;2022-12-05T10:21:31;96379.50;;;5.28;100.00
11621;BME280;5866;49.094;11.900;2022-12-05T10:24:02;96374.97;;;5.30;100.00
11621;BME280;5866;49.094;11.900;2022-12-05T10:26:32;96372.31;;;4.99;100.00
11621;BME280;5866;49.094;11.900;2022-12-05T10:29:08;96381.22;;;5.18;100.00
11621;BME280;5866;49.094;11.900;2022-12-05T10:31:39;96375.09;;;5.49;100.00
11621;BME280;5866;49.094;11.900;2022-12-05T10:34:14;96363.13;;;5.56;100.00
11621;BME280;5866;49.094;11.900;2022-12-05T10:36:52;96366.88;;;5.22;100.00
11621;BME280;5866;49.094;11.900;2022-12-05T10:39:21;96368.59;;;5.12;100.00
11621;BME280;5866;49.094;11.900;2022-12-05T10:41:48;96375.38;;;4.72;100.00
11621;BME280;5866;49.094;11.900;2022-12-05T10:44:16;96375.09;;;4.54;100.00
11621;BME280;5866;49.094;11.900;2022-12-05T10:46:44;96391.06;;;4.51;100.00
11621;BME280;5866;49.094;11.900;2022-12-05T10:49:13;96388.31;;;4.64;100.00
11621;BME280;5866;49.094;11.900;2022-12-05T10:51:41;96381.13;;;4.77;100.00
11621;BME280;5866;49.094;11.900;2022-12-05T10:54:16;96378.16;;;4.59;100.00
11621;BME280;5866;49.094;11.900;2022-12-05T10:56:45;96377.81;;;4.53;100.00
11621;BME280;5866;49.094;11.900;2022-12-05T10:59:14;96377.88;;;4.84;100.00
11621;BME280;5866;49.094;11.900;2022-12-05T11:01:46;96370.19;;;4.39;100.00
11621;BME280;5866;49.094;11.900;2022-12-05T11:04:25;96368.06;;;4.44;100.00
11621;BME280;5866;49.094;11.900;2022-12-05T11:06:56;96366.81;;;4.70;100.00
11621;BME280;5866;49.094;11.900;2022-12-05T11:09:26;96368.94;;;4.76;100.00
11621;BME280;5866;49.094;11.900;2022-12-05T11:12:15;96363.59;;;4.66;100.00
11621;BME280;5866;49.094;11.900;2022-12-05T11:14:54;96375.69;;;4.14;100.00
11621;BME280;5866;49.094;11.900;2022-12-05T11:17:24;96369.97;;;4.42;100.00
11621;BME280;5866;49.094;11.900;2022-12-05T11:19:54;96360.84;;;4.68;100.00
11621;BME280;5866;49.094;11.900;2022-12-05T11:22:29;96360.91;;;4.89;100.00
11621;BME280;5866;49.094;11.900;2022-12-05T11:24:57;96354.78;;;4.88;100.00
11621;BME280;5866;49.094;11.900;2022-12-05T11:27:27;96357.06;;;5.24;100.00
11621;BME280;5866;49.094;11.900;2022-12-05T11:30:00;96358.75;;;5.46;100.00
11621;BME280;5866;49.094;11.900;2022-12-05T11:32:30;96350.22;;;5.53;100.00
11621;BME280;5866;49.094;11.900;2022-12-05T11:35:07;96348.94;;;5.69;100.00
11621;BME280;5866;49.094;11.900;2022-12-05T11:37:39;96351.50;;;5.80;100.00
11621;BME280;5866;49.094;11.900;2022-12-05T11:40:15;96356.13;;;5.67;100.00
11621;BME280;5866;49.094;11.900;2022-12-05T11:43:00;96350.84;;;5.67;100.00
11621;BME280;5866;49.094;11.900;2022-12-05T11:45:43;96342.75;;;5.79;100.00
11621;BME280;5866;49.094;11.900;2022-12-05T11:48:27;96344.06;;;5.85;100.00
11621;BME280;5866;49.094;11.900;2022-12-05T11:54:03;96341.41;;;5.64;100.00
11621;BME280;5866;49.094;11.900;2022-12-05T11:56:40;96338.59;;;5.35;100.00
11621;BME280;5866;49.094;11.900;2022-12-05T11:59:21;96347.38;;;5.45;100.00
11621;BME280;5866;49.094;11.900;2022-12-05T12:01:57;96345.66;;;5.35;100.00
11621;BME280;5866;49.094;11.900;2022-12-05T12:04:44;96342.78;;;5.17;100.00
11621;BME280;5866;49.094;11.900;2022-12-05T12:07:25;96335.53;;;5.92;100.00
11621;BME280;5866;49.094;11.900;2022-12-05T12:10:05;96333.22;;;5.99;100.00
11621;BME280;5866;49.094;11.900;2022-12-05T12:12:41;96339.06;;;6.12;100.00
11621;BME280;5866;49.094;11.900;2022-12-05T12:15:26;96339.03;;;5.82;100.00
11621;BME280;5866;49.094;11.900;2022-12-05T12:18:09;96342.34;;;5.95;100.00
11621;BME280;5866;49.094;11.900;2022-12-05T12:20:46;96335.50;;;6.13;100.00
11621;BME280;5866;49.094;11.900;2022-12-05T12:23:31;96339.78;;;6.14;100.00
11621;BME280;5866;49.094;11.900;2022-12-05T12:26:06;96337.25;;;5.61;100.00
11621;BME280;5866;49.094;11.900;2022-12-05T12:28:41;96339.25;;;5.69;100.00
11621;BME280;5866;49.094;11.900;2022-12-05T12:31:45;96344.53;;;6.20;100.00
11621;BME280;5866;49.094;11.900;2022-12-05T12:34:39;96337.53;;;6.39;100.00
11621;BME280;5866;49.094;11.900;2022-12-05T12:37:19;96334.66;;;6.12;100.00
11621;BME280;5866;49.094;11.900;2022-12-05T12:39:56;96336.09;;;6.26;100.00
11621;BME280;5866;49.094;11.900;2022-12-05T12:42:35;96331.84;;;6.34;100.00
11621;BME280;5866;49.094;11.900;2022-12-05T12:45:35;96325.97;;;6.21;100.00
11621;BME280;5866;49.094;11.900;2022-12-05T12:48:14;96330.66;;;5.88;100.00
11621;BME280;5866;49.094;11.900;2022-12-05T12:50:46;96322.38;;;5.72;100.00
11621;BME280;5866;49.094;11.900;2022-12-05T12:53:36;96328.50;;;5.40;100.00
11621;BME280;5866;49.094;11.900;2022-12-05T12:56:19;96332.81;;;5.21;100.00
11621;BME280;5866;49.094;11.900;2022-12-05T12:58:57;96338.56;;;5.46;100.00
11621;BME280;5866;49.094;11.900;2022-12-05T13:01:30;96336.75;;;5.68;100.00
11621;BME280;5866;49.094;11.900;2022-12-05T13:04:03;96332.50;;;5.55;100.00
11621;BME280;5866;49.094;11.900;2022-12-05T13:06:39;96335.78;;;5.69;100.00
11621;BME280;5866;49.094;11.900;2022-12-05T13:09:14;96339.16;;;5.18;100.00
11621;BME280;5866;49.094;11.900;2022-12-05T13:11:46;96336.03;;;5.45;100.00
11621;BME280;5866;49.094;11.900;2022-12-05T13:14:17;96330.09;;;5.11;100.00
11621;BME280;5866;49.094;11.900;2022-12-05T13:16:50;96332.13;;;5.39;100.00
11621;BME280;5866;49.094;11.900;2022-12-05T13:19:26;96325.59;;;5.54;100.00
11621;BME280;5866;49.094;11.900;2022-12-05T13:21:56;96323.06;;;5.74;100.00
11621;BME280;5866;49.094;11.900;2022-12-05T13:24:26;96323.13;;;5.83;100.00
11621;BME280;5866;49.094;11.900;2022-12-05T13:26:58;96331.41;;;5.79;100.00
11621;BME280;5866;49.094;11.900;2022-12-05T13:29:30;96326.97;;;6.00;100.00